sensor_id;sensor_type;location;lat;lon;timestamp;P1;durP1;ratioP1;P2;durP2;ratioP2
79212;SDS011;68639;52.380;9.822;2023-07-24T00:02:00;2.72;;;1.73;;
79212;SDS011;68639;52.380;9.822;2023-07-24T00:04:26;2.22;;;1.63;;
79212;SDS011;68639;52.380;9.822;2023-07-24T00:06:51;1.90;;;1.60;;
79212;SDS011;68639;52.380;9.822;2023-07-24T00:09:16;3.28;;;1.75;;
79212;SDS011;68639;52.380;9.822;2023-07-24T00:11:41;2.08;;;1.30;;
79212;SDS011;68639;52.380;9.822;2023-07-24T00:14:06;4.40;;;1.70;;
79212;SDS011;68639;52.380;9.822;2023-07-24T00:16:32;3.08;;;1.65;;
79212;SDS011;68639;52.380;9.822;2023-07-24T00:18:57;2.05;;;1.60;;
79212;SDS011;68639;52.380;9.822;2023-07-24T00:21:22;1.80;;;1.25;;
79212;SDS011;68639;52.380;9.822;2023-07-24T00:23:47;2.40;;;1.60;;
79212;SDS011;68639;52.380;9.822;2023-07-24T00:26:12;2.58;;;1.73;;
79212;SDS011;68639;52.380;9.822;2023-07-24T00:28:38;5.05;;;2.10;;
79212;SDS011;68639;52.380;9.822;2023-07-24T00:31:03;2.25;;;1.83;;
79212;SDS011;68639;52.380;9.822;2023-07-24T00:33:28;4.20;;;1.73;;
79212;SDS011;68639;52.380;9.822;2023-07-24T00:35:56;2.50;;;1.90;;
79212;SDS011;68639;52.380;9.822;2023-07-24T00:38:24;4.78;;;2.17;;
79212;SDS011;68639;52.380;9.822;2023-07-24T00:40:50;3.10;;;2.08;;
79212;SDS011;68639;52.380;9.822;2023-07-24T00:43:15;3.10;;;2.22;;
79212;SDS011;68639;52.380;9.822;2023-07-24T00:45:40;3.88;;;2.30;;
79212;SDS011;68639;52.380;9.822;2023-07-24T00:48:05;2.55;;;1.90;;
79212;SDS011;68639;52.380;9.822;2023-07-24T00:50:31;2.65;;;2.05;;
79212;SDS011;68639;52.380;9.822;2023-07-24T00:52:56;2.78;;;2.20;;
79212;SDS011;68639;52.380;9.822;2023-07-24T00:55:21;3.20;;;1.98;;
79212;SDS011;68639;52.380;9.822;2023-07-24T00:57:47;2.63;;;1.80;;
79212;SDS011;68639;52.380;9.822;2023-07-24T01:00:12;3.83;;;1.90;;
79212;SDS011;68639;52.380;9.822;2023-07-24T01:02:37;2.50;;;1.80;;
79212;SDS011;68639;52.380;9.822;2023-07-24T01:05:03;2.97;;;2.00;;
79212;SDS011;68639;52.380;9.822;2023-07-24T01:07:28;5.30;;;2.10;;
79212;SDS011;68639;52.380;9.822;2023-07-24T01:09:54;3.13;;;2.40;;
79212;SDS011;68639;52.380;9.822;2023-07-24T01:12:22;3.60;;;2.55;;
79212;SDS011;68639;52.380;9.822;2023-07-24T01:14:52;4.20;;;2.53;;
79212;SDS011;68639;52.380;9.822;2023-07-24T01:17:20;2.72;;;2.10;;
79212;SDS011;68639;52.380;9.822;2023-07-24T01:19:49;4.15;;;2.40;;
79212;SDS011;68639;52.380;9.822;2023-07-24T01:27:25;4.72;;;2.72;;
79212;SDS011;68639;52.380;9.822;2023-07-24T01:29:50;3.50;;;2.70;;
79212;SDS011;68639;52.380;9.822;2023-07-24T01:32:15;3.40;;;3.10;;
79212;SDS011;68639;52.380;9.822;2023-07-24T01:34:41;3.50;;;2.60;;
79212;SDS011;68639;52.380;9.822;2023-07-24T01:37:06;6.05;;;3.13;;
79212;SDS011;68639;52.380;9.822;2023-07-24T01:39:32;4.13;;;2.75;;
79212;SDS011;68639;52.380;9.822;2023-07-24T01:41:57;4.45;;;3.25;;
79212;SDS011;68639;52.380;9.822;2023-07-24T01:44:23;3.67;;;3.10;;
79212;SDS011;68639;52.380;9.822;2023-07-24T01:46:48;6.82;;;3.33;;
79212;SDS011;68639;52.380;9.822;2023-07-24T01:49:13;7.57;;;3.88;;
79212;SDS011;68639;52.380;9.822;2023-07-24T01:51:39;5.03;;;3.30;;
79212;SDS011;68639;52.380;9.822;2023-07-24T01:54:04;3.97;;;3.13;;
79212;SDS011;68639;52.380;9.822;2023-07-24T01:56:29;4.10;;;3.40;;
79212;SDS011;68639;52.380;9.822;2023-07-24T01:58:54;4.65;;;3.38;;
79212;SDS011;68639;52.380;9.822;2023-07-24T02:01:19;3.83;;;3.35;;
79212;SDS011;68639;52.380;9.822;2023-07-24T02:03:44;4.53;;;3.28;;
79212;SDS011;68639;52.380;9.822;2023-07-24T02:06:10;4.75;;;3.30;;
79212;SDS011;68639;52.380;9.822;2023-07-24T02:08:35;4.28;;;3.20;;
79212;SDS011;68639;52.380;9.822;2023-07-24T02:11:00;5.50;;;3.60;;
79212;SDS011;68639;52.380;9.822;2023-07-24T02:13:25;4.22;;;3.50;;
79212;SDS011;68639;52.380;9.822;2023-07-24T02:15:51;5.65;;;3.08;;
79212;SDS011;68639;52.380;9.822;2023-07-24T02:18:16;7.22;;;3.42;;
79212;SDS011;68639;52.380;9.822;2023-07-24T02:20:47;4.20;;;3.22;;
79212;SDS011;68639;52.380;9.822;2023-07-24T02:23:13;5.18;;;3.83;;
79212;SDS011;68639;52.380;9.822;2023-07-24T02:25:38;4.13;;;3.15;;
79212;SDS011;68639;52.380;9.822;2023-07-24T02:28:03;4.50;;;3.63;;
79212;SDS011;68639;52.380;9.822;2023-07-24T02:30:28;5.35;;;3.47;;
79212;SDS011;68639;52.380;9.822;2023-07-24T02:32:53;4.95;;;3.30;;
79212;SDS011;68639;52.380;9.822;2023-07-24T02:35:21;4.50;;;3.53;;
79212;SDS011;68639;52.380;9.822;2023-07-24T02:37:46;4.88;;;3.80;;
79212;SDS011;68639;52.380;9.822;2023-07-24T02:40:11;4.80;;;3.70;;
79212;SDS011;68639;52.380;9.822;2023-07-24T02:42:36;4.30;;;3.50;;
79212;SDS011;68639;52.380;9.822;2023-07-24T02:45:02;5.85;;;3.70;;
79212;SDS011;68639;52.380;9.822;2023-07-24T02:47:27;4.97;;;3.60;;
79212;SDS011;68639;52.380;9.822;2023-07-24T02:49:52;4.72;;;3.72;;
79212;SDS011;68639;52.380;9.822;2023-07-24T02:52:17;5.30;;;3.80;;
79212;SDS011;68639;52.380;9.822;2023-07-24T02:54:43;5.90;;;3.47;;
79212;SDS011;68639;52.380;9.822;2023-07-24T02:57:08;3.63;;;3.22;;
79212;SDS011;68639;52.380;9.822;2023-07-24T02:59:33;4.95;;;3.25;;
79212;SDS011;68639;52.380;9.822;2023-07-24T03:02:00;5.05;;;4.22;;
79212;SDS011;68639;52.380;9.822;2023-07-24T03:04:25;6.20;;;3.50;;
79212;SDS011;68639;52.380;9.822;2023-07-24T03:06:50;5.30;;;3.00;;
79212;SDS011;68639;52.380;9.822;2023-07-24T03:09:15;3.53;;;2.90;;
79212;SDS011;68639;52.380;9.822;2023-07-24T03:11:41;4.38;;;3.28;;
79212;SDS011;68639;52.380;9.822;2023-07-24T03:14:06;3.85;;;2.92;;
79212;SDS011;68639;52.380;9.822;2023-07-24T03:16:31;4.40;;;3.13;;
79212;SDS011;68639;52.380;9.822;2023-07-24T03:18:56;3.50;;;2.83;;
79212;SDS011;68639;52.380;9.822;2023-07-24T03:21:21;3.70;;;2.72;;
79212;SDS011;68639;52.380;9.822;2023-07-24T03:23:47;4.05;;;2.78;;
79212;SDS011;68639;52.380;9.822;2023-07-24T03:26:12;3.50;;;2.60;;
79212;SDS011;68639;52.380;9.822;2023-07-24T03:28:37;3.58;;;2.40;;
79212;SDS011;68639;52.380;9.822;2023-07-24T03:31:02;4.28;;;2.20;;
79212;SDS011;68639;52.380;9.822;2023-07-24T03:33:27;3.50;;;2.30;;
79212;SDS011;68639;52.380;9.822;2023-07-24T03:35:53;3.67;;;2.40;;
79212;SDS011;68639;52.380;9.822;2023-07-24T03:38:18;2.92;;;2.30;;
79212;SDS011;68639;52.380;9.822;2023-07-24T03:40:43;4.15;;;1.90;;
79212;SDS011;68639;52.380;9.822;2023-07-24T03:43:09;4.97;;;2.10;;
79212;SDS011;68639;52.380;9.822;2023-07-24T03:45:34;3.72;;;2.00;;
79212;SDS011;68639;52.380;9.822;2023-07-24T03:47:59;3.00;;;1.85;;
79212;SDS011;68639;52.380;9.822;2023-07-24T03:50:24;5.70;;;2.20;;
79212;SDS011;68639;52.380;9.822;2023-07-24T03:52:49;5.03;;;2.00;;
79212;SDS011;68639;52.380;9.822;2023-07-24T03:55:15;3.58;;;2.25;;
79212;SDS011;68639;52.380;9.822;2023-07-24T03:57:40;5.82;;;2.10;;
79212;SDS011;68639;52.380;9.822;2023-07-24T04:00:05;3.53;;;1.90;;
79212;SDS011;68639;52.380;9.822;2023-07-24T04:02:31;3.95;;;2.00;;
79212;SDS011;68639;52.380;9.822;2023-07-24T04:04:56;3.95;;;1.98;;
79212;SDS011;68639;52.380;9.822;2023-07-24T04:07:21;2.58;;;1.92;;
79212;SDS011;68639;52.380;9.822;2023-07-24T04:09:47;3.38;;;1.95;;
79212;SDS011;68639;52.380;9.822;2023-07-24T04:12:12;3.00;;;2.05;;
79212;SDS011;68639;52.380;9.822;2023-07-24T04:14:37;4.78;;;2.00;;
79212;SDS011;68639;52.380;9.822;2023-07-24T04:17:02;3.30;;;2.00;;
79212;SDS011;68639;52.380;9.822;2023-07-24T04:19:27;3.15;;;2.15;;
79212;SDS011;68639;52.380;9.822;2023-07-24T04:21:53;3.55;;;2.03;;
79212;SDS011;68639;52.380;9.822;2023-07-24T04:24:18;3.88;;;2.17;;
79212;SDS011;68639;52.380;9.822;2023-07-24T04:26:43;3.80;;;2.10;;
79212;SDS011;68639;52.380;9.822;2023-07-24T04:29:08;5.45;;;1.90;;
79212;SDS011;68639;52.380;9.822;2023-07-24T04:31:33;3.15;;;1.88;;
79212;SDS011;68639;52.380;9.822;2023-07-24T04:33:59;3.38;;;1.98;;
79212;SDS011;68639;52.380;9.822;2023-07-24T04:36:24;5.07;;;1.80;;
79212;SDS011;68639;52.380;9.822;2023-07-24T04:38:49;3.60;;;1.80;;
79212;SDS011;68639;52.380;9.822;2023-07-24T04:41:14;4.30;;;2.10;;
79212;SDS011;68639;52.380;9.822;2023-07-24T04:43:39;3.13;;;1.83;;
79212;SDS011;68639;52.380;9.822;2023-07-24T04:46:05;3.60;;;2.20;;
79212;SDS011;68639;52.380;9.822;2023-07-24T04:48:30;3.92;;;2.03;;
79212;SDS011;68639;52.380;9.822;2023-07-24T04:50:55;3.70;;;2.17;;
79212;SDS011;68639;52.380;9.822;2023-07-24T04:53:21;3.40;;;1.85;;
79212;SDS011;68639;52.380;9.822;2023-07-24T04:55:46;2.85;;;1.70;;
79212;SDS011;68639;52.380;9.822;2023-07-24T04:58:11;3.08;;;1.90;;
79212;SDS011;68639;52.380;9.822;2023-07-24T05:00:36;4.57;;;1.60;;
79212;SDS011;68639;52.380;9.822;2023-07-24T05:03:02;3.83;;;2.00;;
79212;SDS011;68639;52.380;9.822;2023-07-24T05:05:27;5.15;;;1.70;;
79212;SDS011;68639;52.380;9.822;2023-07-24T05:07:52;3.78;;;1.80;;
79212;SDS011;68639;52.380;9.822;2023-07-24T05:10:17;2.42;;;1.50;;
79212;SDS011;68639;52.380;9.822;2023-07-24T05:12:42;4.93;;;1.92;;
79212;SDS011;68639;52.380;9.822;2023-07-24T05:15:08;3.38;;;1.67;;
79212;SDS011;68639;52.380;9.822;2023-07-24T05:17:33;3.03;;;1.52;;
79212;SDS011;68639;52.380;9.822;2023-07-24T05:19:58;2.65;;;1.83;;
79212;SDS011;68639;52.380;9.822;2023-07-24T05:22:23;3.55;;;1.80;;
79212;SDS011;68639;52.380;9.822;2023-07-24T05:24:50;3.33;;;1.67;;
79212;SDS011;68639;52.380;9.822;2023-07-24T05:27:15;5.35;;;1.90;;
79212;SDS011;68639;52.380;9.822;2023-07-24T05:29:41;6.10;;;1.50;;
79212;SDS011;68639;52.380;9.822;2023-07-24T05:32:06;3.17;;;1.58;;
79212;SDS011;68639;52.380;9.822;2023-07-24T05:34:31;3.08;;;1.70;;
79212;SDS011;68639;52.380;9.822;2023-07-24T05:36:56;2.55;;;1.50;;
79212;SDS011;68639;52.380;9.822;2023-07-24T05:39:21;3.50;;;1.50;;
79212;SDS011;68639;52.380;9.822;2023-07-24T05:41:47;4.28;;;1.35;;
79212;SDS011;68639;52.380;9.822;2023-07-24T05:44:12;3.80;;;1.75;;
79212;SDS011;68639;52.380;9.822;2023-07-24T05:46:38;5.95;;;1.42;;
79212;SDS011;68639;52.380;9.822;2023-07-24T05:49:03;4.03;;;1.42;;
79212;SDS011;68639;52.380;9.822;2023-07-24T05:51:28;2.55;;;1.42;;
79212;SDS011;68639;52.380;9.822;2023-07-24T05:53:54;4.07;;;1.92;;
79212;SDS011;68639;52.380;9.822;2023-07-24T05:56:19;4.50;;;1.63;;
79212;SDS011;68639;52.380;9.822;2023-07-24T05:58:44;10.48;;;2.97;;
79212;SDS011;68639;52.380;9.822;2023-07-24T06:01:09;4.70;;;2.50;;
79212;SDS011;68639;52.380;9.822;2023-07-24T06:03:35;5.63;;;2.13;;
79212;SDS011;68639;52.380;9.822;2023-07-24T06:06:00;4.32;;;2.10;;
79212;SDS011;68639;52.380;9.822;2023-07-24T06:08:25;7.28;;;2.30;;
79212;SDS011;68639;52.380;9.822;2023-07-24T06:10:51;7.40;;;1.80;;
79212;SDS011;68639;52.380;9.822;2023-07-24T06:13:16;5.32;;;2.13;;
79212;SDS011;68639;52.380;9.822;2023-07-24T06:15:41;6.38;;;2.70;;
79212;SDS011;68639;52.380;9.822;2023-07-24T06:18:07;5.53;;;2.40;;
79212;SDS011;68639;52.380;9.822;2023-07-24T06:20:32;6.53;;;2.25;;
79212;SDS011;68639;52.380;9.822;2023-07-24T06:22:57;3.78;;;2.00;;
79212;SDS011;68639;52.380;9.822;2023-07-24T06:25:22;2.90;;;1.90;;
79212;SDS011;68639;52.380;9.822;2023-07-24T06:27:48;4.03;;;2.13;;
79212;SDS011;68639;52.380;9.822;2023-07-24T06:30:13;2.97;;;2.00;;
79212;SDS011;68639;52.380;9.822;2023-07-24T06:32:38;4.60;;;2.10;;
79212;SDS011;68639;52.380;9.822;2023-07-24T06:35:03;6.90;;;1.92;;
79212;SDS011;68639;52.380;9.822;2023-07-24T06:37:29;3.90;;;2.08;;
79212;SDS011;68639;52.380;9.822;2023-07-24T06:39:54;4.15;;;1.95;;
79212;SDS011;68639;52.380;9.822;2023-07-24T06:42:19;4.22;;;2.05;;
79212;SDS011;68639;52.380;9.822;2023-07-24T06:44:44;3.80;;;1.80;;
79212;SDS011;68639;52.380;9.822;2023-07-24T06:47:10;7.97;;;2.00;;
79212;SDS011;68639;52.380;9.822;2023-07-24T06:49:35;5.28;;;2.50;;
79212;SDS011;68639;52.380;9.822;2023-07-24T06:52:00;5.65;;;2.13;;
79212;SDS011;68639;52.380;9.822;2023-07-24T06:54:25;4.15;;;2.20;;
79212;SDS011;68639;52.380;9.822;2023-07-24T06:56:51;4.30;;;2.30;;
79212;SDS011;68639;52.380;9.822;2023-07-24T06:59:16;4.82;;;2.47;;
79212;SDS011;68639;52.380;9.822;2023-07-24T07:01:41;6.45;;;2.40;;
79212;SDS011;68639;52.380;9.822;2023-07-24T07:04:06;4.82;;;2.22;;
79212;SDS011;68639;52.380;9.822;2023-07-24T07:06:31;5.72;;;2.63;;
79212;SDS011;68639;52.380;9.822;2023-07-24T07:08:57;5.85;;;2.30;;
79212;SDS011;68639;52.380;9.822;2023-07-24T07:11:22;4.43;;;2.42;;
79212;SDS011;68639;52.380;9.822;2023-07-24T07:13:47;5.05;;;2.30;;
79212;SDS011;68639;52.380;9.822;2023-07-24T07:16:12;4.70;;;2.13;;
79212;SDS011;68639;52.380;9.822;2023-07-24T07:18:38;9.15;;;2.38;;
79212;SDS011;68639;52.380;9.822;2023-07-24T07:21:03;5.53;;;2.50;;
79212;SDS011;68639;52.380;9.822;2023-07-24T07:23:30;5.70;;;2.58;;
79212;SDS011;68639;52.380;9.822;2023-07-24T07:25:55;6.70;;;2.40;;
79212;SDS011;68639;52.380;9.822;2023-07-24T07:28:20;6.28;;;2.67;;
79212;SDS011;68639;52.380;9.822;2023-07-24T07:30:46;8.82;;;3.42;;
79212;SDS011;68639;52.380;9.822;2023-07-24T07:33:11;9.52;;;3.25;;
79212;SDS011;68639;52.380;9.822;2023-07-24T07:35:36;8.05;;;3.75;;
79212;SDS011;68639;52.380;9.822;2023-07-24T07:38:02;16.58;;;5.03;;
79212;SDS011;68639;52.380;9.822;2023-07-24T07:40:27;12.23;;;4.70;;
79212;SDS011;68639;52.380;9.822;2023-07-24T07:42:53;9.82;;;4.63;;
79212;SDS011;68639;52.380;9.822;2023-07-24T07:45:18;9.27;;;3.97;;
79212;SDS011;68639;52.380;9.822;2023-07-24T07:47:43;7.70;;;4.22;;
79212;SDS011;68639;52.380;9.822;2023-07-24T07:50:09;8.95;;;3.50;;
79212;SDS011;68639;52.380;9.822;2023-07-24T07:52:34;7.13;;;3.63;;
79212;SDS011;68639;52.380;9.822;2023-07-24T07:54:59;10.13;;;5.13;;
79212;SDS011;68639;52.380;9.822;2023-07-24T07:57:25;22.30;;;5.18;;
79212;SDS011;68639;52.380;9.822;2023-07-24T07:59:50;23.67;;;5.75;;
79212;SDS011;68639;52.380;9.822;2023-07-24T08:02:15;9.45;;;4.55;;
79212;SDS011;68639;52.380;9.822;2023-07-24T08:04:40;72.88;;;6.97;;
79212;SDS011;68639;52.380;9.822;2023-07-24T08:07:05;7.55;;;4.50;;
79212;SDS011;68639;52.380;9.822;2023-07-24T08:09:31;15.18;;;5.88;;
79212;SDS011;68639;52.380;9.822;2023-07-24T08:11:57;12.82;;;5.78;;
79212;SDS011;68639;52.380;9.822;2023-07-24T08:14:22;13.57;;;6.50;;
79212;SDS011;68639;52.380;9.822;2023-07-24T08:16:48;9.90;;;5.00;;
79212;SDS011;68639;52.380;9.822;2023-07-24T08:19:13;8.32;;;3.85;;
79212;SDS011;68639;52.380;9.822;2023-07-24T08:21:39;8.90;;;4.10;;
79212;SDS011;68639;52.380;9.822;2023-07-24T08:24:05;8.10;;;3.85;;
79212;SDS011;68639;52.380;9.822;2023-07-24T08:26:30;8.48;;;3.75;;
79212;SDS011;68639;52.380;9.822;2023-07-24T08:28:55;5.88;;;3.47;;
79212;SDS011;68639;52.380;9.822;2023-07-24T08:31:20;9.82;;;3.65;;
79212;SDS011;68639;52.380;9.822;2023-07-24T08:33:46;7.20;;;3.42;;
79212;SDS011;68639;52.380;9.822;2023-07-24T08:36:11;7.75;;;3.72;;
79212;SDS011;68639;52.380;9.822;2023-07-24T08:38:39;7.10;;;3.50;;
79212;SDS011;68639;52.380;9.822;2023-07-24T08:41:09;5.85;;;3.20;;
79212;SDS011;68639;52.380;9.822;2023-07-24T08:43:35;14.25;;;3.83;;
79212;SDS011;68639;52.380;9.822;2023-07-24T08:46:01;9.80;;;4.10;;
79212;SDS011;68639;52.380;9.822;2023-07-24T08:48:29;8.15;;;3.95;;
79212;SDS011;68639;52.380;9.822;2023-07-24T08:50:54;10.02;;;3.72;;
79212;SDS011;68639;52.380;9.822;2023-07-24T08:53:21;7.90;;;3.85;;
79212;SDS011;68639;52.380;9.822;2023-07-24T08:55:47;6.38;;;3.80;;
79212;SDS011;68639;52.380;9.822;2023-07-24T08:58:13;6.63;;;4.05;;
79212;SDS011;68639;52.380;9.822;2023-07-24T09:00:38;8.40;;;3.85;;
79212;SDS011;68639;52.380;9.822;2023-07-24T09:03:04;10.50;;;3.90;;
79212;SDS011;68639;52.380;9.822;2023-07-24T09:05:30;6.75;;;3.75;;
79212;SDS011;68639;52.380;9.822;2023-07-24T09:07:55;7.90;;;4.10;;
79212;SDS011;68639;52.380;9.822;2023-07-24T09:10:24;7.40;;;3.78;;
79212;SDS011;68639;52.380;9.822;2023-07-24T09:12:49;7.00;;;4.57;;
79212;SDS011;68639;52.380;9.822;2023-07-24T09:15:14;8.52;;;4.28;;
79212;SDS011;68639;52.380;9.822;2023-07-24T09:17:47;6.10;;;3.67;;
79212;SDS011;68639;52.380;9.822;2023-07-24T09:20:12;9.00;;;5.43;;
79212;SDS011;68639;52.380;9.822;2023-07-24T09:22:37;6.10;;;4.32;;
79212;SDS011;68639;52.380;9.822;2023-07-24T09:25:12;8.00;;;4.47;;
79212;SDS011;68639;52.380;9.822;2023-07-24T09:27:37;5.97;;;4.18;;
79212;SDS011;68639;52.380;9.822;2023-07-24T09:30:11;6.70;;;4.70;;
79212;SDS011;68639;52.380;9.822;2023-07-24T09:32:36;7.95;;;4.95;;
79212;SDS011;68639;52.380;9.822;2023-07-24T09:35:03;10.07;;;4.78;;
79212;SDS011;68639;52.380;9.822;2023-07-24T09:37:32;5.07;;;3.70;;
79212;SDS011;68639;52.380;9.822;2023-07-24T09:39:57;6.70;;;4.32;;
79212;SDS011;68639;52.380;9.822;2023-07-24T09:42:32;6.22;;;4.60;;
79212;SDS011;68639;52.380;9.822;2023-07-24T09:44:58;6.88;;;4.95;;
79212;SDS011;68639;52.380;9.822;2023-07-24T09:47:23;7.00;;;4.82;;
79212;SDS011;68639;52.380;9.822;2023-07-24T09:49:48;6.70;;;4.57;;
79212;SDS011;68639;52.380;9.822;2023-07-24T09:52:13;6.57;;;4.30;;
79212;SDS011;68639;52.380;9.822;2023-07-24T09:54:42;8.18;;;4.32;;
79212;SDS011;68639;52.380;9.822;2023-07-24T09:57:12;9.32;;;4.60;;
79212;SDS011;68639;52.380;9.822;2023-07-24T09:59:38;5.72;;;4.00;;
79212;SDS011;68639;52.380;9.822;2023-07-24T10:02:04;6.15;;;3.72;;
79212;SDS011;68639;52.380;9.822;2023-07-24T10:04:29;5.80;;;4.20;;
79212;SDS011;68639;52.380;9.822;2023-07-24T10:06:54;5.13;;;3.75;;
79212;SDS011;68639;52.380;9.822;2023-07-24T10:09:20;5.72;;;3.50;;
79212;SDS011;68639;52.380;9.822;2023-07-24T10:11:47;5.70;;;3.50;;
79212;SDS011;68639;52.380;9.822;2023-07-24T10:14:13;5.90;;;3.30;;
79212;SDS011;68639;52.380;9.822;2023-07-24T10:16:38;6.10;;;3.22;;
79212;SDS011;68639;52.380;9.822;2023-07-24T10:19:12;5.55;;;3.40;;
79212;SDS011;68639;52.380;9.822;2023-07-24T10:21:37;4.85;;;2.97;;
79212;SDS011;68639;52.380;9.822;2023-07-24T10:24:09;6.45;;;3.20;;
79212;SDS011;68639;52.380;9.822;2023-07-24T10:26:34;4.95;;;3.10;;
79212;SDS011;68639;52.380;9.822;2023-07-24T10:29:00;4.70;;;3.03;;
79212;SDS011;68639;52.380;9.822;2023-07-24T10:31:25;4.93;;;2.70;;
79212;SDS011;68639;52.380;9.822;2023-07-24T10:33:54;4.57;;;2.83;;
79212;SDS011;68639;52.380;9.822;2023-07-24T10:36:20;5.28;;;2.92;;
79212;SDS011;68639;52.380;9.822;2023-07-24T10:38:52;6.93;;;2.80;;
79212;SDS011;68639;52.380;9.822;2023-07-24T10:41:17;6.97;;;2.92;;
79212;SDS011;68639;52.380;9.822;2023-07-24T10:43:46;4.70;;;3.10;;
79212;SDS011;68639;52.380;9.822;2023-07-24T10:46:12;6.68;;;3.00;;
79212;SDS011;68639;52.380;9.822;2023-07-24T10:48:37;5.32;;;3.10;;
79212;SDS011;68639;52.380;9.822;2023-07-24T10:51:06;5.03;;;3.05;;
79212;SDS011;68639;52.380;9.822;2023-07-24T10:53:34;5.20;;;2.75;;
79212;SDS011;68639;52.380;9.822;2023-07-24T10:55:59;3.92;;;3.10;;
79212;SDS011;68639;52.380;9.822;2023-07-24T10:58:25;6.07;;;2.95;;
79212;SDS011;68639;52.380;9.822;2023-07-24T11:00:51;6.78;;;2.97;;
79212;SDS011;68639;52.380;9.822;2023-07-24T11:03:16;7.20;;;3.30;;
79212;SDS011;68639;52.380;9.822;2023-07-24T11:05:42;4.82;;;3.30;;
79212;SDS011;68639;52.380;9.822;2023-07-24T11:08:14;4.25;;;3.30;;
79212;SDS011;68639;52.380;9.822;2023-07-24T11:10:46;4.20;;;3.33;;
79212;SDS011;68639;52.380;9.822;2023-07-24T11:13:12;4.72;;;3.28;;
79212;SDS011;68639;52.380;9.822;2023-07-24T11:15:37;5.53;;;3.47;;
79212;SDS011;68639;52.380;9.822;2023-07-24T11:18:03;5.50;;;3.15;;
79212;SDS011;68639;52.380;9.822;2023-07-24T11:20:29;5.32;;;3.40;;
79212;SDS011;68639;52.380;9.822;2023-07-24T11:22:57;5.65;;;3.53;;
79212;SDS011;68639;52.380;9.822;2023-07-24T11:25:22;6.95;;;3.60;;
79212;SDS011;68639;52.380;9.822;2023-07-24T11:27:47;4.78;;;3.35;;
79212;SDS011;68639;52.380;9.822;2023-07-24T11:30:18;5.00;;;3.08;;
79212;SDS011;68639;52.380;9.822;2023-07-24T11:32:43;7.63;;;3.92;;
79212;SDS011;68639;52.380;9.822;2023-07-24T11:35:09;4.53;;;2.95;;
79212;SDS011;68639;52.380;9.822;2023-07-24T11:37:34;5.85;;;3.33;;
79212;SDS011;68639;52.380;9.822;2023-07-24T11:40:00;4.75;;;3.42;;
79212;SDS011;68639;52.380;9.822;2023-07-24T11:42:36;6.90;;;3.70;;
79212;SDS011;68639;52.380;9.822;2023-07-24T11:45:02;5.05;;;3.38;;
79212;SDS011;68639;52.380;9.822;2023-07-24T11:47:27;4.75;;;3.47;;
79212;SDS011;68639;52.380;9.822;2023-07-24T11:49:57;5.25;;;2.97;;
79212;SDS011;68639;52.380;9.822;2023-07-24T11:52:23;3.08;;;1.73;;
79212;SDS011;68639;52.380;9.822;2023-07-24T11:54:55;2.13;;;1.48;;
79212;SDS011;68639;52.380;9.822;2023-07-24T11:57:22;3.28;;;2.03;;
79212;SDS011;68639;52.380;9.822;2023-07-24T11:59:47;6.43;;;2.27;;
79212;SDS011;68639;52.380;9.822;2023-07-24T12:02:13;3.90;;;2.70;;
79212;SDS011;68639;52.380;9.822;2023-07-24T12:04:38;4.13;;;2.83;;
79212;SDS011;68639;52.380;9.822;2023-07-24T12:07:09;5.60;;;3.05;;
79212;SDS011;68639;52.380;9.822;2023-07-24T12:09:34;5.28;;;3.08;;
79212;SDS011;68639;52.380;9.822;2023-07-24T12:11:59;6.73;;;3.10;;
79212;SDS011;68639;52.380;9.822;2023-07-24T12:14:25;5.20;;;3.75;;
79212;SDS011;68639;52.380;9.822;2023-07-24T12:16:59;6.32;;;3.55;;
79212;SDS011;68639;52.380;9.822;2023-07-24T12:19:24;5.28;;;3.47;;
79212;SDS011;68639;52.380;9.822;2023-07-24T12:21:49;7.80;;;3.90;;
79212;SDS011;68639;52.380;9.822;2023-07-24T12:24:14;7.68;;;3.80;;
79212;SDS011;68639;52.380;9.822;2023-07-24T12:26:40;6.65;;;4.05;;
79212;SDS011;68639;52.380;9.822;2023-07-24T12:29:05;7.43;;;4.05;;
79212;SDS011;68639;52.380;9.822;2023-07-24T12:31:30;7.72;;;4.10;;
79212;SDS011;68639;52.380;9.822;2023-07-24T12:33:55;10.20;;;4.23;;
79212;SDS011;68639;52.380;9.822;2023-07-24T12:36:21;7.95;;;4.00;;
79212;SDS011;68639;52.380;9.822;2023-07-24T12:38:46;7.60;;;4.67;;
79212;SDS011;68639;52.380;9.822;2023-07-24T12:41:13;7.68;;;4.50;;
79212;SDS011;68639;52.380;9.822;2023-07-24T12:43:38;7.15;;;4.50;;
79212;SDS011;68639;52.380;9.822;2023-07-24T12:46:03;9.20;;;5.33;;
79212;SDS011;68639;52.380;9.822;2023-07-24T12:48:29;6.25;;;4.50;;
79212;SDS011;68639;52.380;9.822;2023-07-24T12:50:56;8.52;;;4.78;;
79212;SDS011;68639;52.380;9.822;2023-07-24T12:53:22;7.93;;;5.03;;
79212;SDS011;68639;52.380;9.822;2023-07-24T12:55:48;7.05;;;4.75;;
79212;SDS011;68639;52.380;9.822;2023-07-24T12:58:13;7.68;;;5.10;;
79212;SDS011;68639;52.380;9.822;2023-07-24T13:00:38;5.78;;;4.70;;
79212;SDS011;68639;52.380;9.822;2023-07-24T13:03:03;6.20;;;4.78;;
79212;SDS011;68639;52.380;9.822;2023-07-24T13:05:29;8.15;;;5.82;;
79212;SDS011;68639;52.380;9.822;2023-07-24T13:07:55;7.43;;;5.00;;
79212;SDS011;68639;52.380;9.822;2023-07-24T13:10:21;9.02;;;5.72;;
79212;SDS011;68639;52.380;9.822;2023-07-24T13:12:46;5.65;;;4.90;;
79212;SDS011;68639;52.380;9.822;2023-07-24T13:15:11;9.35;;;5.22;;
79212;SDS011;68639;52.380;9.822;2023-07-24T13:17:37;8.02;;;5.38;;
79212;SDS011;68639;52.380;9.822;2023-07-24T13:20:02;6.85;;;5.40;;
79212;SDS011;68639;52.380;9.822;2023-07-24T13:22:27;8.52;;;5.47;;
79212;SDS011;68639;52.380;9.822;2023-07-24T13:24:53;6.03;;;4.68;;
79212;SDS011;68639;52.380;9.822;2023-07-24T13:27:18;6.00;;;4.40;;
79212;SDS011;68639;52.380;9.822;2023-07-24T13:29:43;6.70;;;4.47;;
79212;SDS011;68639;52.380;9.822;2023-07-24T13:32:08;6.20;;;4.40;;
79212;SDS011;68639;52.380;9.822;2023-07-24T13:34:34;6.95;;;4.15;;
79212;SDS011;68639;52.380;9.822;2023-07-24T13:36:59;6.10;;;4.10;;
79212;SDS011;68639;52.380;9.822;2023-07-24T13:39:24;6.10;;;4.03;;
79212;SDS011;68639;52.380;9.822;2023-07-24T13:41:49;4.93;;;3.50;;
79212;SDS011;68639;52.380;9.822;2023-07-24T13:44:14;6.10;;;4.00;;
79212;SDS011;68639;52.380;9.822;2023-07-24T13:46:40;8.70;;;4.05;;
79212;SDS011;68639;52.380;9.822;2023-07-24T13:49:05;8.40;;;3.90;;
79212;SDS011;68639;52.380;9.822;2023-07-24T13:51:30;5.43;;;3.90;;
79212;SDS011;68639;52.380;9.822;2023-07-24T13:53:55;5.15;;;4.05;;
79212;SDS011;68639;52.380;9.822;2023-07-24T13:56:20;6.07;;;3.63;;
79212;SDS011;68639;52.380;9.822;2023-07-24T13:58:48;8.65;;;3.80;;
79212;SDS011;68639;52.380;9.822;2023-07-24T14:01:13;6.25;;;3.67;;
79212;SDS011;68639;52.380;9.822;2023-07-24T14:03:38;7.15;;;3.63;;
79212;SDS011;68639;52.380;9.822;2023-07-24T14:06:03;9.00;;;3.50;;
79212;SDS011;68639;52.380;9.822;2023-07-24T14:08:29;3.83;;;2.80;;
79212;SDS011;68639;52.380;9.822;2023-07-24T14:10:54;8.63;;;3.35;;
79212;SDS011;68639;52.380;9.822;2023-07-24T14:13:20;12.43;;;3.97;;
79212;SDS011;68639;52.380;9.822;2023-07-24T14:15:45;8.98;;;3.50;;
79212;SDS011;68639;52.380;9.822;2023-07-24T14:18:10;7.55;;;3.50;;
79212;SDS011;68639;52.380;9.822;2023-07-24T14:20:35;6.82;;;4.55;;
79212;SDS011;68639;52.380;9.822;2023-07-24T14:23:02;6.45;;;4.63;;
79212;SDS011;68639;52.380;9.822;2023-07-24T14:25:27;6.72;;;4.60;;
79212;SDS011;68639;52.380;9.822;2023-07-24T14:27:52;6.93;;;4.30;;
79212;SDS011;68639;52.380;9.822;2023-07-24T14:30:17;6.22;;;4.35;;
79212;SDS011;68639;52.380;9.822;2023-07-24T14:32:43;6.88;;;4.78;;
79212;SDS011;68639;52.380;9.822;2023-07-24T14:35:08;8.40;;;5.13;;
79212;SDS011;68639;52.380;9.822;2023-07-24T14:37:33;5.43;;;3.90;;
79212;SDS011;68639;52.380;9.822;2023-07-24T14:39:58;6.00;;;3.63;;
79212;SDS011;68639;52.380;9.822;2023-07-24T14:42:23;4.43;;;3.17;;
79212;SDS011;68639;52.380;9.822;2023-07-24T14:44:49;6.10;;;3.50;;